Time;durP1;ratioP1;P1;durP2;ratioP2;P2;SDS_P1;SDS_P2;PMS_P1;PMS_P2;Temp;Humidity;BMP_temperature;BMP_pressure;BME280_temperature;BME280_humidity;BME280_pressure;Samples;Min_cycle;Max_cycle;Signal;HPM_P1;HPM_P2
2024/02/24 00:03:04;;;;;;;;;;;;;;;17.56;43.38;97637.50;10370099;28;1886;-79
2024/02/24 00:08:00;;;;;;;;;;;;;;;17.55;43.47;97633.16;10370496;28;852;-79
2024/02/24 00:12:56;;;;;;;;;;;;;;;17.55;43.48;97627.06;10370251;28;831;-77
2024/02/24 00:17:52;;;;;;;;;;;;;;;17.53;43.54;97625.38;10370068;28;913;-79
2024/02/24 00:22:48;;;;;;;;;;;;;;;17.53;43.49;97632.47;10369284;28;1897;-79
2024/02/24 00:27:43;;;;;;;;;;;;;;;17.51;43.35;97631.72;10368517;28;869;-79
2024/02/24 00:32:39;;;;;;;;;;;;;;;17.51;43.38;97626.47;10369471;28;1317;-79
2024/02/24 00:37:35;;;;;;;;;;;;;;;17.51;43.44;97622.03;10368652;28;897;-79
2024/02/24 00:42:31;;;;;;;;;;;;;;;17.51;43.41;97624.66;10367252;28;1980;-79
2024/02/24 00:47:27;;;;;;;;;;;;;;;17.49;43.53;97615.19;10368981;28;782;-79
2024/02/24 00:52:25;;;;;;;;;;;;;;;17.47;43.49;97607.41;10367816;28;852;-79
2024/02/24 00:57:21;;;;;;;;;;;;;;;17.48;43.52;97611.72;10367948;28;881;-79
2024/02/24 01:02:17;;;;;;;;;;;;;;;17.47;43.38;97607.41;10368199;28;1970;-79
2024/02/24 01:07:15;;;;;;;;;;;;;;;17.47;43.58;97611.84;10368129;28;784;-78
2024/02/24 01:12:11;;;;;;;;;;;;;;;17.45;43.47;97617.22;10368311;28;849;-79
2024/02/24 01:17:07;;;;;;;;;;;;;;;17.45;43.60;97622.50;10367948;28;785;-79
2024/02/24 01:22:03;;;;;;;;;;;;;;;17.44;43.35;97628.72;10367001;28;1952;-79
2024/02/24 01:26:59;;;;;;;;;;;;;;;17.45;43.53;97621.66;10367044;28;888;-78
2024/02/24 01:31:59;;;;;;;;;;;;;;;17.43;43.54;97618.31;10366845;28;1453;-79
2024/02/24 01:36:55;;;;;;;;;;;;;;;17.44;43.54;97619.97;10366684;28;879;-79
2024/02/24 01:41:51;;;;;;;;;;;;;;;17.43;43.49;97624.41;10366713;28;1977;-79
2024/02/24 01:46:47;;;;;;;;;;;;;;;17.42;43.46;97638.53;10367401;28;833;-79
2024/02/24 01:51:43;;;;;;;;;;;;;;;17.43;43.54;97642.00;10366468;28;1054;-78
2024/02/24 01:56:38;;;;;;;;;;;;;;;17.42;43.64;97648.22;10298141;28;1258;-78
2024/02/24 02:01:34;;;;;;;;;;;;;;;17.42;43.55;97649.06;10160304;28;1955;-78
2024/02/24 02:06:31;;;;;;;;;;;;;;;17.41;43.46;97647.38;10165012;28;857;-78
2024/02/24 02:11:27;;;;;;;;;;;;;;;17.41;43.56;97650.00;10165593;28;865;-79
2024/02/24 02:16:23;;;;;;;;;;;;;;;17.40;43.56;97642.25;10165336;28;1028;-78
2024/02/24 02:21:19;;;;;;;;;;;;;;;17.40;43.53;97645.72;10164400;28;1898;-78
2024/02/24 02:26:17;;;;;;;;;;;;;;;17.40;43.60;97644.88;10165246;28;865;-78
2024/02/24 02:31:13;;;;;;;;;;;;;;;17.39;43.58;97640.53;10164673;28;1113;-80
2024/02/24 02:36:09;;;;;;;;;;;;;;;17.38;43.55;97636.25;10164006;28;782;-80
2024/02/24 02:41:05;;;;;;;;;;;;;;;17.37;43.39;97638.03;10164653;28;1914;-78
2024/02/24 02:46:01;;;;;;;;;;;;;;;17.37;43.44;97648.56;10163114;28;805;-79
2024/02/24 02:50:57;;;;;;;;;;;;;;;17.37;43.58;97629.28;10163619;28;782;-80
2024/02/24 02:55:53;;;;;;;;;;;;;;;17.36;43.64;97638.97;10164053;28;861;-79
2024/02/24 03:00:49;;;;;;;;;;;;;;;17.35;43.63;97636.47;10163209;28;1927;-80
2024/02/24 03:05:44;;;;;;;;;;;;;;;17.35;43.88;97641.75;10163186;28;818;-80
2024/02/24 03:10:40;;;;;;;;;;;;;;;17.34;43.70;97642.69;10163023;28;851;-80
2024/02/24 03:15:36;;;;;;;;;;;;;;;17.33;43.69;97644.47;10162385;28;857;-80
2024/02/24 03:20:32;;;;;;;;;;;;;;;17.32;43.52;97661.25;10162671;28;1959;-80
2024/02/24 03:25:28;;;;;;;;;;;;;;;17.31;43.70;97656.91;10163175;28;872;-80
2024/02/24 03:30:24;;;;;;;;;;;;;;;17.31;43.55;97668.28;10162081;28;1390;-80
2024/02/24 03:35:20;;;;;;;;;;;;;;;17.31;43.49;97663.00;10162618;28;840;-79
2024/02/24 03:40:16;;;;;;;;;;;;;;;17.31;43.42;97681.44;10162645;28;1981;-80
2024/02/24 03:45:12;;;;;;;;;;;;;;;17.29;43.64;97675.47;10161583;28;1055;-80
2024/02/24 03:50:07;;;;;;;;;;;;;;;17.30;43.53;97678.94;10161279;28;830;-80
2024/02/24 03:55:03;;;;;;;;;;;;;;;17.29;43.56;97680.75;10161720;28;801;-80
2024/02/24 03:59:59;;;;;;;;;;;;;;;17.28;43.69;97686.94;10162024;28;1903;-80
2024/02/24 04:04:55;;;;;;;;;;;;;;;17.27;43.65;97700.25;10161885;28;785;-80
2024/02/24 04:09:51;;;;;;;;;;;;;;;17.27;43.68;97705.50;10161791;28;790;-80
2024/02/24 04:14:47;;;;;;;;;;;;;;;17.25;43.50;97702.97;10160498;28;960;-79
2024/02/24 04:19:43;;;;;;;;;;;;;;;17.26;43.49;97699.38;10160856;28;1898;-80
2024/02/24 04:24:38;;;;;;;;;;;;;;;17.26;43.64;97704.63;10160992;28;892;-80
2024/02/24 04:29:34;;;;;;;;;;;;;;;17.25;43.72;97715.31;10160580;28;1384;-79
2024/02/24 04:34:30;;;;;;;;;;;;;;;17.23;43.64;97719.84;10160404;28;875;-80
2024/02/24 04:39:26;;;;;;;;;;;;;;;17.21;43.71;97727.88;10160283;28;1971;-79
2024/02/24 04:44:22;;;;;;;;;;;;;;;17.23;43.61;97720.66;10160768;28;873;-80
2024/02/24 04:49:18;;;;;;;;;;;;;;;17.24;43.47;97732.91;10160649;28;782;-80
2024/02/24 04:54:14;;;;;;;;;;;;;;;17.25;43.68;97731.94;10159867;28;830;-79
2024/02/24 04:59:09;;;;;;;;;;;;;;;17.25;43.73;97741.63;10160323;28;806;-79
2024/02/24 05:04:06;;;;;;;;;;;;;;;17.27;43.57;97745.00;10160176;28;1887;-80
2024/02/24 05:09:02;;;;;;;;;;;;;;;17.27;43.70;97745.00;10159853;28;925;-80
2024/02/24 05:13:57;;;;;;;;;;;;;;;17.26;43.69;97749.41;10159261;28;939;-79
2024/02/24 05:18:53;;;;;;;;;;;;;;;17.29;43.53;97732.53;10160365;28;881;-80
2024/02/24 05:23:49;;;;;;;;;;;;;;;17.28;43.60;97746.66;10158972;28;1891;-79
2024/02/24 05:28:45;;;;;;;;;;;;;;;17.30;43.60;97750.03;10159365;28;1262;-79
2024/02/24 05:33:41;;;;;;;;;;;;;;;17.31;43.77;97746.44;10158866;28;960;-79
2024/02/24 05:38:37;;;;;;;;;;;;;;;17.30;43.76;97745.59;10157191;28;940;-78
2024/02/24 05:43:33;;;;;;;;;;;;;;;17.30;43.67;97745.59;10158372;28;1910;-79
2024/02/24 05:48:29;;;;;;;;;;;;;;;17.31;43.59;97755.19;10158272;28;878;-79
2024/02/24 05:53:25;;;;;;;;;;;;;;;17.33;43.47;97756.88;10158991;28;940;-78
2024/02/24 05:58:21;;;;;;;;;;;;;;;17.32;43.71;97763.94;10158829;28;860;-77
2024/02/24 06:03:17;;;;;;;;;;;;;;;17.33;43.80;97765.59;10157863;28;1948;-78
2024/02/24 06:08:13;;;;;;;;;;;;;;;17.34;43.78;97774.34;10157811;28;803;-78
2024/02/24 06:13:09;;;;;;;;;;;;;;;17.36;43.56;97780.34;10157604;28;870;-70
2024/02/24 06:18:05;;;;;;;;;;;;;;;17.37;43.94;97787.28;10157167;28;828;-69
2024/02/24 06:23:01;;;;;;;;;;;;;;;17.38;43.80;97779.28;10157491;28;1980;-76
2024/02/24 06:27:58;;;;;;;;;;;;;;;17.39;44.09;97780.94;10157410;28;886;-69
2024/02/24 06:32:54;;;;;;;;;;;;;;;17.40;43.85;97793.19;10158716;28;1313;-72
2024/02/24 06:37:49;;;;;;;;;;;;;;;17.41;43.94;97794.03;10157086;28;790;-71
2024/02/24 06:42:45;;;;;;;;;;;;;;;17.41;43.78;97791.38;10157576;28;1919;-73
2024/02/24 06:47:41;;;;;;;;;;;;;;;17.41;43.80;97794.84;10159185;28;838;-69
2024/02/24 06:52:37;;;;;;;;;;;;;;;17.42;43.89;97808.84;10163637;28;933;-69
2024/02/24 06:57:33;;;;;;;;;;;;;;;17.42;43.82;97817.63;10163491;28;782;-77
2024/02/24 07:02:29;;;;;;;;;;;;;;;17.42;44.04;97819.41;10163834;28;1902;-68
2024/02/24 07:07:25;;;;;;;;;;;;;;;17.41;43.99;97823.81;10163454;28;818;-74
2024/02/24 07:12:21;;;;;;;;;;;;;;;17.41;43.94;97831.72;10163044;28;890;-69
2024/02/24 07:17:17;;;;;;;;;;;;;;;17.40;43.91;97837.13;10162900;28;754;-68
2024/02/24 07:22:12;;;;;;;;;;;;;;;17.38;44.06;97841.66;10162892;28;1906;-68
2024/02/24 07:27:08;;;;;;;;;;;;;;;17.36;43.85;97846.19;10162448;28;1121;-68
2024/02/24 07:32:04;;;;;;;;;;;;;;;17.36;43.83;97859.34;10162629;28;1105;-68
2024/02/24 07:37:01;;;;;;;;;;;;;;;17.35;44.01;97884.00;10162210;28;917;-69
2024/02/24 07:41:57;;;;;;;;;;;;;;;17.35;43.81;97881.38;10161440;28;1923;-68
2024/02/24 07:46:53;;;;;;;;;;;;;;;17.35;44.01;97878.75;10161453;28;901;-68
2024/02/24 07:51:50;;;;;;;;;;;;;;;17.35;43.87;97886.66;10161828;28;781;-69
2024/02/24 07:56:46;;;;;;;;;;;;;;;17.36;44.12;97888.31;10161654;28;904;-68
2024/02/24 08:01:42;;;;;;;;;;;;;;;17.37;44.06;97890.84;10161447;28;1902;-68
2024/02/24 08:06:38;;;;;;;;;;;;;;;17.39;44.10;97901.25;10161403;28;822;-68
2024/02/24 08:11:39;;;;;;;;;;;;;;;17.40;44.04;97902.97;10161204;28;1481;-67
2024/02/24 08:16:35;;;;;;;;;;;;;;;17.41;44.02;97910.75;10161109;28;850;-67
2024/02/24 08:21:36;;;;;;;;;;;;;;;17.42;44.36;97911.56;10160463;28;1883;-68
2024/02/24 08:26:34;;;;;;;;;;;;;;;17.42;44.31;97919.47;10160885;28;806;-67
2024/02/24 08:31:30;;;;;;;;;;;;;;;17.42;44.31;97914.22;10160774;28;1255;-68
2024/02/24 08:36:26;;;;;;;;;;;;;;;17.44;44.24;97918.41;10161459;28;910;-67
2024/02/24 08:41:22;;;;;;;;;;;;;;;17.42;44.13;97925.59;10160165;28;1915;-67
2024/02/24 08:46:21;;;;;;;;;;;;;;;17.40;43.97;97924.03;10161435;28;917;-67
2024/02/24 08:51:17;;;;;;;;;;;;;;;17.40;43.85;97931.94;10160607;28;857;-67
2024/02/24 08:56:14;;;;;;;;;;;;;;;17.39;43.68;97932.88;10160044;28;825;-67
2024/02/24 09:01:10;;;;;;;;;;;;;;;17.40;43.78;97939.84;10159562;28;1930;-67
2024/02/24 09:06:05;;;;;;;;;;;;;;;17.40;43.71;97945.09;10159572;28;775;-67
2024/02/24 09:11:01;;;;;;;;;;;;;;;17.40;43.78;97953.00;10158336;28;926;-67
2024/02/24 09:15:57;;;;;;;;;;;;;;;17.40;43.58;97955.63;10159889;28;874;-67
2024/02/24 09:20:53;;;;;;;;;;;;;;;17.40;43.55;97958.28;10159083;28;1937;-67
2024/02/24 09:25:49;;;;;;;;;;;;;;;17.40;43.57;97960.91;10158806;28;1786;-67
2024/02/24 09:30:46;;;;;;;;;;;;;;;17.41;43.57;97970.47;10159153;28;1074;-67
2024/02/24 09:35:42;;;;;;;;;;;;;;;17.43;43.76;97976.50;10158963;28;783;-67
2024/02/24 09:40:38;;;;;;;;;;;;;;;17.43;43.63;97979.13;10158996;28;1931;-67
2024/02/24 09:45:34;;;;;;;;;;;;;;;17.43;43.58;97987.03;10158471;28;856;-67
2024/02/24 09:50:30;;;;;;;;;;;;;;;17.43;43.61;97990.50;10158456;28;826;-67
2024/02/24 09:55:26;;;;;;;;;;;;;;;17.43;43.69;98008.09;10158659;28;824;-67
2024/02/24 10:00:22;;;;;;;;;;;;;;;17.44;43.58;98015.03;10159033;28;1898;-67
2024/02/24 10:05:18;;;;;;;;;;;;;;;17.45;43.48;98019.38;10157205;28;909;-67
2024/02/24 10:10:16;;;;;;;;;;;;;;;17.45;43.47;98017.56;10157789;28;869;-69
2024/02/24 10:15:12;;;;;;;;;;;;;;;17.47;43.59;98028.81;10158425;28;860;-68
2024/02/24 10:20:08;;;;;;;;;;;;;;;17.49;43.77;98039.25;10231976;28;1897;-69
2024/02/24 10:25:04;;;;;;;;;;;;;;;17.49;43.44;98044.53;10372544;28;968;-69
2024/02/24 10:30:02;;;;;;;;;;;;;;;17.49;43.55;98055.06;10374274;28;1152;-68
2024/02/24 10:34:58;;;;;;;;;;;;;;;17.49;43.32;98052.44;10373801;28;849;-71
2024/02/24 10:39:54;;;;;;;;;;;;;;;17.49;43.42;98055.91;10374177;28;1906;-71
2024/02/24 10:44:50;;;;;;;;;;;;;;;17.50;43.21;98051.47;10373389;28;941;-72
2024/02/24 10:49:46;;;;;;;;;;;;;;;17.49;42.96;98055.06;10373182;28;846;-69
2024/02/24 10:54:42;;;;;;;;;;;;;;;17.50;43.16;98070.78;10372907;28;825;-69
2024/02/24 10:59:38;;;;;;;;;;;;;;;17.51;43.03;98071.63;10371951;28;1948;-72
2024/02/24 11:04:35;;;;;;;;;;;;;;;17.54;42.97;98074.03;10372238;28;777;-70
2024/02/24 11:09:30;;;;;;;;;;;;;;;17.52;43.17;98068.84;10371985;28;873;-69
2024/02/24 11:14:26;;;;;;;;;;;;;;;17.53;43.18;98072.38;10371885;28;810;-69
2024/02/24 11:19:22;;;;;;;;;;;;;;;17.55;43.19;98067.81;10371079;28;1043;-69
2024/02/24 11:24:18;;;;;;;;;;;;;;;17.54;42.97;98079.31;10371027;28;2011;-69
2024/02/24 11:29:14;;;;;;;;;;;;;;;17.54;43.01;98079.31;10370806;28;1278;-69
2024/02/24 11:34:11;;;;;;;;;;;;;;;17.59;42.92;98076.34;10369984;28;806;-69
2024/02/24 11:39:08;;;;;;;;;;;;;;;17.54;43.00;98081.94;10371010;28;1251;-69
2024/02/24 11:44:04;;;;;;;;;;;;;;;17.52;43.02;98092.56;10370894;28;1979;-69
2024/02/24 11:49:01;;;;;;;;;;;;;;;17.53;42.74;98098.69;10370396;28;924;-69
2024/02/24 11:53:57;;;;;;;;;;;;;;;17.57;42.72;98100.16;10370414;28;786;-69
2024/02/24 11:58:54;;;;;;;;;;;;;;;17.54;42.95;98100.38;10370230;28;794;-67
2024/02/24 12:03:50;;;;;;;;;;;;;;;17.59;42.51;98093.00;10369172;28;1901;-67
2024/02/24 12:08:46;;;;;;;;;;;;;;;17.58;42.58;98088.69;10369649;28;970;-66
2024/02/24 12:13:42;;;;;;;;;;;;;;;17.54;42.43;98097.75;10369100;28;882;-66
2024/02/24 12:18:38;;;;;;;;;;;;;;;17.50;42.67;98104.16;10367520;28;776;-68
2024/02/24 12:23:34;;;;;;;;;;;;;;;17.51;42.66;98113.75;10369616;28;1901;-68
2024/02/24 12:28:31;;;;;;;;;;;;;;;17.50;42.48;98125.22;10369621;28;1185;-67
2024/02/24 12:33:28;;;;;;;;;;;;;;;17.50;42.26;98123.47;10369691;28;786;-68
2024/02/24 12:38:23;;;;;;;;;;;;;;;17.50;42.37;98130.50;10368358;28;809;-69
2024/02/24 12:43:19;;;;;;;;;;;;;;;17.61;42.45;98122.72;10368642;28;1917;-69
2024/02/24 12:48:15;;;;;;;;;;;;;;;17.64;42.40;98122.50;10368566;28;868;-69
2024/02/24 12:53:11;;;;;;;;;;;;;;;17.62;42.47;98126.19;10368319;28;773;-68
2024/02/24 12:58:07;;;;;;;;;;;;;;;17.69;41.99;98116.94;10367853;28;1165;-69
2024/02/24 13:03:03;;;;;;;;;;;;;;;17.72;42.32;98117.56;10367881;28;1893;-69
2024/02/24 13:07:59;;;;;;;;;;;;;;;17.72;42.31;98130.72;10368413;28;940;-69
2024/02/24 13:12:55;;;;;;;;;;;;;;;17.72;42.35;98125.47;10367034;28;1132;-69
2024/02/24 13:17:51;;;;;;;;;;;;;;;17.68;42.59;98131.03;10367492;28;957;-69
2024/02/24 13:22:46;;;;;;;;;;;;;;;17.71;42.30;98144.00;10366650;28;1980;-73
2024/02/24 13:27:44;;;;;;;;;;;;;;;17.81;42.31;98136.34;10366650;28;928;-70
2024/02/24 13:32:39;;;;;;;;;;;;;;;17.91;41.94;98130.31;10367376;28;1286;-68
2024/02/24 13:37:35;;;;;;;;;;;;;;;17.97;41.80;98136.97;10366913;28;921;-68
2024/02/24 13:42:31;;;;;;;;;;;;;;;18.07;41.61;98145.91;10367195;28;1925;-68
2024/02/24 13:47:27;;;;;;;;;;;;;;;18.06;41.82;98148.69;10366496;28;986;-68
2024/02/24 13:52:23;;;;;;;;;;;;;;;18.05;41.95;98144.34;10366906;28;813;-69
2024/02/24 13:57:19;;;;;;;;;;;;;;;18.02;41.98;98149.84;10365485;28;877;-68
2024/02/24 14:02:15;;;;;;;;;;;;;;;17.94;42.29;98153.00;10366588;28;1905;-68
2024/02/24 14:07:12;;;;;;;;;;;;;;;17.93;42.24;98149.53;10365991;28;855;-69
2024/02/24 14:12:08;;;;;;;;;;;;;;;18.02;42.04;98155.09;10366504;28;834;-68
2024/02/24 14:17:04;;;;;;;;;;;;;;;18.22;41.74;98156.34;10366409;28;833;-74
2024/02/24 14:22:00;;;;;;;;;;;;;;;18.03;42.04;98160.28;10365565;28;1951;-74
2024/02/24 14:26:56;;;;;;;;;;;;;;;17.99;41.91;98179.06;10365504;28;869;-74
2024/02/24 14:31:52;;;;;;;;;;;;;;;18.04;41.55;98180.41;10365329;28;1297;-69
2024/02/24 14:36:48;;;;;;;;;;;;;;;18.32;41.52;98176.69;10365361;28;965;-69
2024/02/24 14:41:44;;;;;;;;;;;;;;;18.29;41.46;98171.66;10364695;28;1975;-70
2024/02/24 14:46:40;;;;;;;;;;;;;;;18.15;41.75;98180.50;10365241;28;783;-70
2024/02/24 14:51:36;;;;;;;;;;;;;;;18.08;42.01;98189.81;10365065;28;968;-69
2024/02/24 14:56:33;;;;;;;;;;;;;;;18.11;42.05;98194.88;10364993;28;1090;-69
2024/02/24 15:01:28;;;;;;;;;;;;;;;18.26;41.93;98192.09;10364794;28;1905;-71
2024/02/24 15:06:24;;;;;;;;;;;;;;;18.16;41.98;98199.84;10364780;28;895;-70
2024/02/24 15:11:21;;;;;;;;;;;;;;;18.08;42.03;98192.44;10369928;28;848;-70
2024/02/24 15:16:17;;;;;;;;;;;;;;;18.34;41.75;98200.34;10372146;28;893;-70
2024/02/24 15:21:13;;;;;;;;;;;;;;;18.20;41.92;98192.53;10372243;28;1906;-70
2024/02/24 15:26:11;;;;;;;;;;;;;;;18.09;42.19;98190.66;10371432;28;869;-73
2024/02/24 15:31:06;;;;;;;;;;;;;;;18.04;42.29;98208.56;10371791;28;1124;-73
2024/02/24 15:36:02;;;;;;;;;;;;;;;18.00;42.35;98207.09;10371993;28;849;-73
2024/02/24 15:40:58;;;;;;;;;;;;;;;17.96;42.25;98212.56;10371665;28;1921;-73
2024/02/24 15:45:55;;;;;;;;;;;;;;;17.93;42.18;98211.94;10370826;28;993;-73
2024/02/24 15:50:51;;;;;;;;;;;;;;;17.91;42.26;98213.84;10371226;28;886;-73
2024/02/24 15:55:47;;;;;;;;;;;;;;;17.88;42.27;98216.69;10370425;28;851;-72
2024/02/24 16:00:45;;;;;;;;;;;;;;;17.86;42.28;98219.41;10370857;28;1898;-73
2024/02/24 16:05:40;;;;;;;;;;;;;;;17.85;42.17;98222.19;10370257;28;865;-73
2024/02/24 16:10:36;;;;;;;;;;;;;;;17.85;42.15;98230.09;10370470;28;932;-72
2024/02/24 16:15:32;;;;;;;;;;;;;;;17.84;42.21;98249.47;10370279;28;863;-73
2024/02/24 16:20:30;;;;;;;;;;;;;;;17.83;42.37;98263.59;10369967;28;1909;-74
2024/02/24 16:25:26;;;;;;;;;;;;;;;17.83;42.13;98280.25;10369721;28;964;-74
2024/02/24 16:30:22;;;;;;;;;;;;;;;17.82;42.36;98293.56;10369296;28;1263;-74
2024/02/24 16:35:18;;;;;;;;;;;;;;;17.83;42.62;98308.41;10369459;28;869;-74
2024/02/24 16:40:13;;;;;;;;;;;;;;;17.82;42.33;98309.38;10369234;28;1922;-74
2024/02/24 16:45:09;;;;;;;;;;;;;;;17.82;42.58;98298.81;10368493;28;1009;-73
2024/02/24 16:50:06;;;;;;;;;;;;;;;17.82;42.75;98290.91;10367719;28;797;-74
2024/02/24 16:55:02;;;;;;;;;;;;;;;17.82;42.49;98298.81;10368064;28;757;-74
2024/02/24 16:59:58;;;;;;;;;;;;;;;17.82;42.72;98304.09;10368467;28;1906;-73
2024/02/24 17:04:55;;;;;;;;;;;;;;;17.82;42.55;98319.91;10367683;28;805;-74
2024/02/24 17:09:51;;;;;;;;;;;;;;;17.82;42.51;98339.19;10368110;28;881;-73
2024/02/24 17:14:47;;;;;;;;;;;;;;;17.83;42.75;98334.75;10367386;28;834;-71
2024/02/24 17:19:43;;;;;;;;;;;;;;;17.83;42.84;98332.13;10367129;28;1906;-70
2024/02/24 17:24:39;;;;;;;;;;;;;;;17.83;42.92;98329.50;10367963;28;889;-70
2024/02/24 17:29:35;;;;;;;;;;;;;;;17.84;42.84;98347.84;10366744;28;1304;-70
2024/02/24 17:34:31;;;;;;;;;;;;;;;17.84;42.84;98349.63;10366823;28;841;-70
2024/02/24 17:39:26;;;;;;;;;;;;;;;17.85;42.90;98356.59;10366642;28;864;-70
2024/02/24 17:44:22;;;;;;;;;;;;;;;17.85;42.96;98357.44;10367658;28;1969;-70
2024/02/24 17:49:20;;;;;;;;;;;;;;;17.86;43.00;98374.09;10366693;28;883;-70
2024/02/24 17:54:16;;;;;;;;;;;;;;;17.86;42.87;98368.81;10366580;28;777;-76
2024/02/24 17:59:12;;;;;;;;;;;;;;;17.85;42.98;98367.16;10366480;28;755;-70
2024/02/24 18:04:08;;;;;;;;;;;;;;;17.83;43.01;98375.13;10366304;28;1882;-70
2024/02/24 18:09:03;;;;;;;;;;;;;;;17.83;42.96;98369.88;10366750;28;822;-70
2024/02/24 18:13:59;;;;;;;;;;;;;;;17.83;43.09;98375.13;10366694;28;825;-70
2024/02/24 18:18:55;;;;;;;;;;;;;;;17.83;43.11;98380.41;10367072;28;860;-70
2024/02/24 18:23:51;;;;;;;;;;;;;;;17.84;42.77;98384.75;10365857;28;1890;-70
2024/02/24 18:28:48;;;;;;;;;;;;;;;17.83;42.76;98380.41;10365474;28;1275;-74
2024/02/24 18:33:44;;;;;;;;;;;;;;;17.84;42.88;98389.16;10366484;28;889;-71
2024/02/24 18:38:40;;;;;;;;;;;;;;;17.85;42.81;98386.44;10365331;28;980;-70
2024/02/24 18:43:36;;;;;;;;;;;;;;;17.86;42.70;98390.75;10367775;28;1910;-70
2024/02/24 18:48:31;;;;;;;;;;;;;;;17.86;42.65;98390.75;10372503;28;1008;-70
2024/02/24 18:53:29;;;;;;;;;;;;;;;17.86;42.89;98401.28;10373519;28;858;-71
2024/02/24 18:58:29;;;;;;;;;;;;;;;17.87;42.76;98396.88;10373260;28;784;-71
2024/02/24 19:03:25;;;;;;;;;;;;;;;17.88;42.83;98398.56;10372611;28;2091;-71
2024/02/24 19:08:21;;;;;;;;;;;;;;;17.88;43.02;98391.50;10372364;28;861;-71
2024/02/24 19:13:17;;;;;;;;;;;;;;;17.89;42.75;98389.69;10372697;28;826;-70
2024/02/24 19:18:14;;;;;;;;;;;;;;;17.89;42.80;98397.63;10371955;28;884;-71
2024/02/24 19:23:12;;;;;;;;;;;;;;;17.90;42.81;98407.22;10371618;28;1898;-70
2024/02/24 19:28:08;;;;;;;;;;;;;;;17.90;42.63;98400.16;10371725;28;1078;-70
2024/02/24 19:33:04;;;;;;;;;;;;;;;17.90;42.86;98405.44;10372121;28;1670;-71
2024/02/24 19:38:00;;;;;;;;;;;;;;;17.91;42.98;98393.09;10371169;28;893;-70
2024/02/24 19:42:57;;;;;;;;;;;;;;;17.93;42.82;98404.38;10371735;28;1967;-70
2024/02/24 19:47:53;;;;;;;;;;;;;;;17.92;42.59;98400.91;10371408;28;844;-70
2024/02/24 19:52:49;;;;;;;;;;;;;;;17.93;42.79;98407.03;10370700;28;885;-70
2024/02/24 19:57:44;;;;;;;;;;;;;;;17.94;42.83;98400.78;10370170;28;833;-71
2024/02/24 20:02:40;;;;;;;;;;;;;;;17.94;42.74;98396.38;10370195;28;1943;-71
2024/02/24 20:07:36;;;;;;;;;;;;;;;17.94;42.70;98398.16;10370601;28;911;-70
2024/02/24 20:12:34;;;;;;;;;;;;;;;17.96;42.75;98409.47;10369758;28;813;-70
2024/02/24 20:17:31;;;;;;;;;;;;;;;17.96;42.81;98417.38;10370455;28;778;-70
2024/02/24 20:22:27;;;;;;;;;;;;;;;17.95;42.78;98419.16;10369280;28;1945;-71
2024/02/24 20:27:23;;;;;;;;;;;;;;;17.97;42.75;98424.31;10369236;28;829;-70
2024/02/24 20:32:18;;;;;;;;;;;;;;;17.97;42.88;98421.69;10369295;28;1266;-70
2024/02/24 20:37:14;;;;;;;;;;;;;;;17.96;42.85;98433.19;10368885;28;786;-71
2024/02/24 20:42:11;;;;;;;;;;;;;;;17.94;42.78;98438.53;10368622;28;1914;-70
2024/02/24 20:47:07;;;;;;;;;;;;;;;17.95;42.92;98445.53;10369063;28;794;-70
2024/02/24 20:52:03;;;;;;;;;;;;;;;17.93;42.95;98431.59;10368378;28;900;-70
2024/02/24 20:56:58;;;;;;;;;;;;;;;17.93;42.90;98439.50;10368734;28;877;-71
2024/02/24 21:01:54;;;;;;;;;;;;;;;17.92;42.67;98440.47;10367828;28;1890;-70
2024/02/24 21:06:50;;;;;;;;;;;;;;;17.92;42.98;98450.13;10367706;28;758;-71
2024/02/24 21:11:46;;;;;;;;;;;;;;;17.93;42.70;98454.47;10367976;28;886;-71
2024/02/24 21:16:42;;;;;;;;;;;;;;;17.91;42.69;98453.72;10367666;28;833;-71
2024/02/24 21:21:39;;;;;;;;;;;;;;;17.89;42.73;98447.69;10368128;28;1957;-70
2024/02/24 21:26:35;;;;;;;;;;;;;;;17.88;42.70;98444.22;10367338;28;968;-71
2024/02/24 21:31:31;;;;;;;;;;;;;;;17.89;42.79;98439.78;10368216;28;1536;-71
2024/02/24 21:36:28;;;;;;;;;;;;;;;17.87;42.68;98450.44;10366705;28;873;-71
2024/02/24 21:41:24;;;;;;;;;;;;;;;17.86;42.79;98435.56;10366177;28;1914;-70
2024/02/24 21:46:22;;;;;;;;;;;;;;;17.85;42.83;98425.13;10366829;28;769;-70
2024/02/24 21:51:17;;;;;;;;;;;;;;;17.84;42.74;98423.41;10366636;28;875;-70
2024/02/24 21:56:13;;;;;;;;;;;;;;;17.84;42.75;98418.16;10366526;28;929;-71
2024/02/24 22:01:11;;;;;;;;;;;;;;;17.82;42.84;98420.06;10367023;28;1902;-70
2024/02/24 22:06:07;;;;;;;;;;;;;;;17.81;42.76;98413.09;10366873;28;854;-70
2024/02/24 22:11:03;;;;;;;;;;;;;;;17.79;42.81;98407.03;10366303;28;903;-70
2024/02/24 22:15:59;;;;;;;;;;;;;;;17.77;42.84;98414.22;10365545;28;829;-70
2024/02/24 22:20:54;;;;;;;;;;;;;;;17.74;42.74;98402.91;10373438;28;1957;-70
2024/02/24 22:25:50;;;;;;;;;;;;;;;17.73;42.68;98403.84;10374332;28;995;-70
2024/02/24 22:30:46;;;;;;;;;;;;;;;17.70;42.91;98401.41;10374497;28;1406;-70
2024/02/24 22:35:42;;;;;;;;;;;;;;;17.70;42.60;98397.94;10374737;28;829;-70
2024/02/24 22:40:38;;;;;;;;;;;;;;;17.68;42.52;98392.78;10373974;28;1910;-70
2024/02/24 22:45:34;;;;;;;;;;;;;;;17.66;42.94;98384.13;10374574;28;846;-70
2024/02/24 22:50:30;;;;;;;;;;;;;;;17.65;42.80;98387.69;10373985;28;810;-70
2024/02/24 22:55:26;;;;;;;;;;;;;;;17.63;42.90;98386.09;10373073;28;929;-70
2024/02/24 23:00:22;;;;;;;;;;;;;;;17.61;42.72;98365.13;10372889;28;1889;-70
2024/02/24 23:05:17;;;;;;;;;;;;;;;17.60;42.81;98375.75;10372815;28;731;-70
2024/02/24 23:10:13;;;;;;;;;;;;;;;17.59;42.84;98377.53;10372471;28;978;-70
2024/02/24 23:15:09;;;;;;;;;;;;;;;17.57;42.93;98370.69;10373137;28;852;-70
2024/02/24 23:20:05;;;;;;;;;;;;;;;17.57;42.64;98355.72;10373020;28;1959;-70
2024/02/24 23:25:01;;;;;;;;;;;;;;;17.54;42.80;98348.00;10372623;28;793;-70
2024/02/24 23:29:57;;;;;;;;;;;;;;;17.53;42.87;98347.19;10370415;28;1518;-70
2024/02/24 23:34:53;;;;;;;;;;;;;;;17.52;42.92;98334.09;10372813;28;802;-69
2024/02/24 23:39:49;;;;;;;;;;;;;;;17.51;42.73;98335.88;10372143;28;920;-70
2024/02/24 23:44:45;;;;;;;;;;;;;;;17.51;42.94;98342.94;10371324;28;1910;-70
2024/02/24 23:49:41;;;;;;;;;;;;;;;17.49;42.72;98342.19;10371674;28;933;-70
2024/02/24 23:54:37;;;;;;;;;;;;;;;17.48;42.84;98337.88;10370857;28;832;-70
2024/02/24 23:59:33;;;;;;;;;;;;;;;17.46;42.91;98335.34;10371380;28;839;-70
